sensor_id;sensor_type;location;lat;lon;timestamp;pressure;altitude;pressure_sealevel;temperature;humidity
82353;BME280;71954;47.430;18.920;2024-01-30T00:01:07;102232.75;;;0.14;66.25
82353;BME280;71954;47.430;18.920;2024-01-30T00:03:34;102231.00;;;0.14;66.35
82353;BME280;71954;47.430;18.920;2024-01-30T00:06:03;102229.28;;;0.15;66.07
82353;BME280;71954;47.430;18.920;2024-01-30T00:08:29;102233.63;;;0.16;65.73
82353;BME280;71954;47.430;18.920;2024-01-30T00:10:56;102224.94;;;0.15;65.82
82353;BME280;71954;47.430;18.920;2024-01-30T00:13:23;102232.75;;;0.17;66.21
82353;BME280;71954;47.430;18.920;2024-01-30T00:15:49;102231.00;;;0.19;66.45
82353;BME280;71954;47.430;18.920;2024-01-30T00:18:16;102230.13;;;0.21;66.98
82353;BME280;71954;47.430;18.920;2024-01-30T00:20:43;102231.88;;;0.22;66.68
82353;BME280;71954;47.430;18.920;2024-01-30T00:23:09;102239.69;;;0.25;67.16
82353;BME280;71954;47.430;18.920;2024-01-30T00:25:36;102238.84;;;0.28;67.50
82353;BME280;71954;47.430;18.920;2024-01-30T00:28:03;102244.91;;;0.31;67.11
82353;BME280;71954;47.430;18.920;2024-01-30T00:30:30;102247.53;;;0.34;66.38
82353;BME280;71954;47.430;18.920;2024-01-30T00:32:56;102246.66;;;0.32;66.11
82353;BME280;71954;47.430;18.920;2024-01-30T00:35:23;102244.91;;;0.31;65.84
82353;BME280;71954;47.430;18.920;2024-01-30T00:37:49;102243.16;;;0.30;66.03
82353;BME280;71954;47.430;18.920;2024-01-30T00:40:16;102253.59;;;0.30;65.66
82353;BME280;71954;47.430;18.920;2024-01-30T00:42:44;102257.13;;;0.29;65.08
82353;BME280;71954;47.430;18.920;2024-01-30T00:45:14;102257.13;;;0.22;65.37
82353;BME280;71954;47.430;18.920;2024-01-30T00:47:42;102252.75;;;0.19;65.13
82353;BME280;71954;47.430;18.920;2024-01-30T00:50:09;102251.91;;;0.17;64.76
82353;BME280;71954;47.430;18.920;2024-01-30T00:52:36;102261.47;;;0.18;64.94
82353;BME280;71954;47.430;18.920;2024-01-30T00:55:03;102258.84;;;0.18;64.64
82353;BME280;71954;47.430;18.920;2024-01-30T00:57:30;102247.56;;;0.16;65.17
82353;BME280;71954;47.430;18.920;2024-01-30T00:59:57;102243.22;;;0.17;65.13
82353;BME280;71954;47.430;18.920;2024-01-30T01:02:23;102242.34;;;0.16;64.98
82353;BME280;71954;47.430;18.920;2024-01-30T01:04:50;102240.59;;;0.17;65.28
82353;BME280;71954;47.430;18.920;2024-01-30T01:07:16;102237.13;;;0.16;65.36
82353;BME280;71954;47.430;18.920;2024-01-30T01:09:43;102245.78;;;0.18;65.67
82353;BME280;71954;47.430;18.920;2024-01-30T01:12:10;102237.13;;;0.15;64.86
82353;BME280;71954;47.430;18.920;2024-01-30T01:14:36;102235.34;;;0.12;64.99
82353;BME280;71954;47.430;18.920;2024-01-30T01:17:03;102233.63;;;0.13;65.00
82353;BME280;71954;47.430;18.920;2024-01-30T01:19:29;102238.00;;;0.11;65.11
82353;BME280;71954;47.430;18.920;2024-01-30T01:21:56;102239.75;;;0.10;65.36
82353;BME280;71954;47.430;18.920;2024-01-30T01:24:23;102228.44;;;0.05;65.21
82353;BME280;71954;47.430;18.920;2024-01-30T01:26:50;102235.38;;;0.03;64.51
82353;BME280;71954;47.430;18.920;2024-01-30T01:29:17;102225.84;;;-0.01;64.68
82353;BME280;71954;47.430;18.920;2024-01-30T01:31:44;102228.44;;;-0.04;65.25
82353;BME280;71954;47.430;18.920;2024-01-30T01:34:11;102224.94;;;-0.05;65.40
82353;BME280;71954;47.430;18.920;2024-01-30T01:36:39;102224.94;;;-0.05;65.93
82353;BME280;71954;47.430;18.920;2024-01-30T01:39:05;102216.25;;;-0.04;65.84
82353;BME280;71954;47.430;18.920;2024-01-30T01:41:32;102211.91;;;-0.03;65.70
82353;BME280;71954;47.430;18.920;2024-01-30T01:43:59;102218.88;;;-0.02;65.87
82353;BME280;71954;47.430;18.920;2024-01-30T01:46:27;102221.47;;;-0.02;65.37
82353;BME280;71954;47.430;18.920;2024-01-30T01:48:56;102207.53;;;-0.04;65.03
82353;BME280;71954;47.430;18.920;2024-01-30T01:51:24;102211.03;;;-0.05;65.47
82353;BME280;71954;47.430;18.920;2024-01-30T01:53:54;102206.69;;;-0.06;65.27
82353;BME280;71954;47.430;18.920;2024-01-30T01:56:22;102215.38;;;-0.10;65.26
82353;BME280;71954;47.430;18.920;2024-01-30T01:58:51;102211.91;;;-0.21;65.74
82353;BME280;71954;47.430;18.920;2024-01-30T02:01:21;102219.75;;;-0.21;65.11
82353;BME280;71954;47.430;18.920;2024-01-30T02:03:49;102218.00;;;-0.22;65.31
82353;BME280;71954;47.430;18.920;2024-01-30T02:06:16;102222.34;;;-0.27;65.36
82353;BME280;71954;47.430;18.920;2024-01-30T02:08:43;102215.41;;;-0.31;65.70
82353;BME280;71954;47.430;18.920;2024-01-30T02:11:10;102217.13;;;-0.32;65.24
82353;BME280;71954;47.430;18.920;2024-01-30T02:13:37;102211.91;;;-0.33;65.21
82353;BME280;71954;47.430;18.920;2024-01-30T02:16:04;102217.13;;;-0.33;65.04
82353;BME280;71954;47.430;18.920;2024-01-30T02:18:31;102214.53;;;-0.33;65.01
82353;BME280;71954;47.430;18.920;2024-01-30T02:20:59;102216.28;;;-0.32;65.37
82353;BME280;71954;47.430;18.920;2024-01-30T02:23:30;102211.06;;;-0.32;65.08
82353;BME280;71954;47.430;18.920;2024-01-30T02:26:00;102211.94;;;-0.32;65.34
82353;BME280;71954;47.430;18.920;2024-01-30T02:28:27;102205.84;;;-0.32;65.09
82353;BME280;71954;47.430;18.920;2024-01-30T02:30:56;102204.09;;;-0.33;65.38
82353;BME280;71954;47.430;18.920;2024-01-30T02:33:22;102204.09;;;-0.33;65.20
82353;BME280;71954;47.430;18.920;2024-01-30T02:35:49;102203.22;;;-0.32;65.20
82353;BME280;71954;47.430;18.920;2024-01-30T02:38:16;102211.94;;;-0.32;64.90
82353;BME280;71954;47.430;18.920;2024-01-30T02:40:43;102211.06;;;-0.31;64.78
82353;BME280;71954;47.430;18.920;2024-01-30T02:43:09;102218.00;;;-0.31;63.88
82353;BME280;71954;47.430;18.920;2024-01-30T02:45:36;102216.25;;;-0.35;63.99
82353;BME280;71954;47.430;18.920;2024-01-30T02:48:03;102209.28;;;-0.41;64.38
82353;BME280;71954;47.430;18.920;2024-01-30T02:50:29;102214.53;;;-0.43;64.65
82353;BME280;71954;47.430;18.920;2024-01-30T02:52:56;102214.53;;;-0.44;65.00
82353;BME280;71954;47.430;18.920;2024-01-30T02:55:22;102210.19;;;-0.44;64.76
82353;BME280;71954;47.430;18.920;2024-01-30T02:57:49;102214.53;;;-0.43;64.87
82353;BME280;71954;47.430;18.920;2024-01-30T03:00:16;102205.81;;;-0.42;65.06
82353;BME280;71954;47.430;18.920;2024-01-30T03:02:43;102213.63;;;-0.42;65.32
82353;BME280;71954;47.430;18.920;2024-01-30T03:05:09;102216.25;;;-0.42;65.38
82353;BME280;71954;47.430;18.920;2024-01-30T03:07:36;102205.81;;;-0.40;65.46
82353;BME280;71954;47.430;18.920;2024-01-30T03:10:04;102198.88;;;-0.39;65.72
82353;BME280;71954;47.430;18.920;2024-01-30T03:12:31;102203.22;;;-0.40;65.29
82353;BME280;71954;47.430;18.920;2024-01-30T03:14:58;102211.91;;;-0.41;65.41
82353;BME280;71954;47.430;18.920;2024-01-30T03:17:25;102218.00;;;-0.44;64.93
82353;BME280;71954;47.430;18.920;2024-01-30T03:19:51;102208.41;;;-0.48;64.36
82353;BME280;71954;47.430;18.920;2024-01-30T03:22:18;102207.56;;;-0.50;64.11
82353;BME280;71954;47.430;18.920;2024-01-30T03:24:45;102211.91;;;-0.52;64.53
82353;BME280;71954;47.430;18.920;2024-01-30T03:27:11;102211.91;;;-0.50;64.52
82353;BME280;71954;47.430;18.920;2024-01-30T03:29:38;102213.66;;;-0.49;64.88
82353;BME280;71954;47.430;18.920;2024-01-30T03:32:05;102217.13;;;-0.50;64.64
82353;BME280;71954;47.430;18.920;2024-01-30T03:34:31;102213.66;;;-0.49;64.89
82353;BME280;71954;47.430;18.920;2024-01-30T03:36:58;102214.53;;;-0.49;65.31
82353;BME280;71954;47.430;18.920;2024-01-30T03:39:25;102211.03;;;-0.46;65.07
82353;BME280;71954;47.430;18.920;2024-01-30T03:41:51;102211.03;;;-0.45;65.66
82353;BME280;71954;47.430;18.920;2024-01-30T03:44:18;102202.34;;;-0.44;65.91
82353;BME280;71954;47.430;18.920;2024-01-30T03:46:44;102197.13;;;-0.42;67.14
82353;BME280;71954;47.430;18.920;2024-01-30T03:49:12;102194.53;;;-0.44;68.36
82353;BME280;71954;47.430;18.920;2024-01-30T03:51:38;102193.66;;;-0.43;68.11
82353;BME280;71954;47.430;18.920;2024-01-30T03:54:05;102192.78;;;-0.43;66.01
82353;BME280;71954;47.430;18.920;2024-01-30T03:56:32;102191.91;;;-0.42;66.30
82353;BME280;71954;47.430;18.920;2024-01-30T03:58:58;102193.66;;;-0.43;65.18
82353;BME280;71954;47.430;18.920;2024-01-30T04:01:27;102195.41;;;-0.45;64.83
82353;BME280;71954;47.430;18.920;2024-01-30T04:03:53;102199.75;;;-0.45;64.90
82353;BME280;71954;47.430;18.920;2024-01-30T04:06:20;102195.41;;;-0.51;64.54
82353;BME280;71954;47.430;18.920;2024-01-30T04:08:47;102191.06;;;-0.55;64.57
82353;BME280;71954;47.430;18.920;2024-01-30T04:11:13;102193.66;;;-0.55;64.44
82353;BME280;71954;47.430;18.920;2024-01-30T04:13:40;102195.41;;;-0.55;64.36
82353;BME280;71954;47.430;18.920;2024-01-30T04:16:19;102191.91;;;-0.54;64.18
82353;BME280;71954;47.430;18.920;2024-01-30T04:18:46;102187.56;;;-0.57;63.94
82353;BME280;71954;47.430;18.920;2024-01-30T04:21:13;102187.53;;;-0.60;64.21
82353;BME280;71954;47.430;18.920;2024-01-30T04:23:40;102188.44;;;-0.61;63.74
82353;BME280;71954;47.430;18.920;2024-01-30T04:26:07;102184.09;;;-0.63;63.59
82353;BME280;71954;47.430;18.920;2024-01-30T04:28:33;102187.56;;;-0.64;63.63
82353;BME280;71954;47.430;18.920;2024-01-30T04:31:00;102188.44;;;-0.64;63.38
82353;BME280;71954;47.430;18.920;2024-01-30T04:33:27;102184.94;;;-0.66;63.66
82353;BME280;71954;47.430;18.920;2024-01-30T04:35:53;102191.03;;;-0.65;63.25
82353;BME280;71954;47.430;18.920;2024-01-30T04:38:20;102187.56;;;-0.67;63.73
82353;BME280;71954;47.430;18.920;2024-01-30T04:40:46;102192.78;;;-0.67;63.50
82353;BME280;71954;47.430;18.920;2024-01-30T04:43:13;102178.88;;;-0.69;63.09
82353;BME280;71954;47.430;18.920;2024-01-30T04:45:41;102199.72;;;-0.71;63.31
82353;BME280;71954;47.430;18.920;2024-01-30T04:48:08;102200.59;;;-0.75;63.41
82353;BME280;71954;47.430;18.920;2024-01-30T04:50:35;102198.84;;;-0.79;63.86
82353;BME280;71954;47.430;18.920;2024-01-30T04:53:02;102204.91;;;-0.80;64.20
82353;BME280;71954;47.430;18.920;2024-01-30T04:55:29;102202.31;;;-0.82;63.98
82353;BME280;71954;47.430;18.920;2024-01-30T04:57:55;102207.50;;;-0.82;64.00
82353;BME280;71954;47.430;18.920;2024-01-30T05:00:22;102197.06;;;-0.83;64.16
82353;BME280;71954;47.430;18.920;2024-01-30T05:02:49;102205.75;;;-0.84;64.18
82353;BME280;71954;47.430;18.920;2024-01-30T05:05:15;102204.91;;;-0.86;64.13
82353;BME280;71954;47.430;18.920;2024-01-30T05:07:43;102208.38;;;-0.87;64.10
82353;BME280;71954;47.430;18.920;2024-01-30T05:10:09;102211.84;;;-0.88;63.30
82353;BME280;71954;47.430;18.920;2024-01-30T05:12:36;102213.56;;;-0.90;64.50
82353;BME280;71954;47.430;18.920;2024-01-30T05:15:03;102219.66;;;-0.88;64.92
82353;BME280;71954;47.430;18.920;2024-01-30T05:17:30;102221.41;;;-0.87;64.73
82353;BME280;71954;47.430;18.920;2024-01-30T05:19:56;102223.13;;;-0.89;63.96
82353;BME280;71954;47.430;18.920;2024-01-30T05:22:23;102219.66;;;-0.91;63.87
82353;BME280;71954;47.430;18.920;2024-01-30T05:24:49;102227.47;;;-0.93;63.79
82353;BME280;71954;47.430;18.920;2024-01-30T05:27:16;102230.06;;;-0.96;63.83
82353;BME280;71954;47.430;18.920;2024-01-30T05:29:43;102228.31;;;-1.01;64.42
82353;BME280;71954;47.430;18.920;2024-01-30T05:32:09;102229.16;;;-1.02;64.47
82353;BME280;71954;47.430;18.920;2024-01-30T05:34:37;102233.53;;;-1.01;64.63
82353;BME280;71954;47.430;18.920;2024-01-30T05:37:03;102230.91;;;-1.01;64.37
82353;BME280;71954;47.430;18.920;2024-01-30T05:39:30;102237.88;;;-1.00;64.41
82353;BME280;71954;47.430;18.920;2024-01-30T05:41:59;102231.81;;;-0.99;63.91
82353;BME280;71954;47.430;18.920;2024-01-30T05:44:26;102241.34;;;-1.04;64.13
82353;BME280;71954;47.430;18.920;2024-01-30T05:46:52;102233.50;;;-1.06;64.05
82353;BME280;71954;47.430;18.920;2024-01-30T05:49:20;102234.34;;;-1.08;63.64
82353;BME280;71954;47.430;18.920;2024-01-30T05:51:46;102228.28;;;-1.10;63.66
82353;BME280;71954;47.430;18.920;2024-01-30T05:54:13;102233.50;;;-1.10;64.18
82353;BME280;71954;47.430;18.920;2024-01-30T05:56:43;102230.00;;;-1.14;63.61
82353;BME280;71954;47.430;18.920;2024-01-30T05:59:09;102228.25;;;-1.13;63.84
82353;BME280;71954;47.430;18.920;2024-01-30T06:01:36;102235.22;;;-1.12;63.91
82353;BME280;71954;47.430;18.920;2024-01-30T06:04:03;102240.44;;;-1.12;64.15
82353;BME280;71954;47.430;18.920;2024-01-30T06:06:30;102237.75;;;-1.32;64.59
82353;BME280;71954;47.430;18.920;2024-01-30T06:08:56;102238.56;;;-1.47;65.76
82353;BME280;71954;47.430;18.920;2024-01-30T06:11:23;102235.94;;;-1.48;65.64
82353;BME280;71954;47.430;18.920;2024-01-30T06:13:50;102235.94;;;-1.47;65.71
82353;BME280;71954;47.430;18.920;2024-01-30T06:16:16;102240.28;;;-1.44;65.86
82353;BME280;71954;47.430;18.920;2024-01-30T06:18:43;102242.06;;;-1.39;66.08
82353;BME280;71954;47.430;18.920;2024-01-30T06:21:09;102231.66;;;-1.36;66.19
82353;BME280;71954;47.430;18.920;2024-01-30T06:23:38;102235.16;;;-1.34;65.20
82353;BME280;71954;47.430;18.920;2024-01-30T06:26:06;102243.84;;;-1.29;65.07
82353;BME280;71954;47.430;18.920;2024-01-30T06:28:33;102232.56;;;-1.26;64.93
82353;BME280;71954;47.430;18.920;2024-01-30T06:31:01;102242.13;;;-1.24;64.63
82353;BME280;71954;47.430;18.920;2024-01-30T06:33:27;102244.72;;;-1.20;64.20
82353;BME280;71954;47.430;18.920;2024-01-30T06:35:54;102245.63;;;-1.18;64.45
82353;BME280;71954;47.430;18.920;2024-01-30T06:38:21;102245.63;;;-1.21;64.86
82353;BME280;71954;47.430;18.920;2024-01-30T06:40:47;102250.84;;;-1.21;65.30
82353;BME280;71954;47.430;18.920;2024-01-30T06:43:14;102243.88;;;-1.19;64.92
82353;BME280;71954;47.430;18.920;2024-01-30T06:45:41;102240.41;;;-1.18;65.37
82353;BME280;71954;47.430;18.920;2024-01-30T06:48:09;102246.50;;;-1.16;64.87
82353;BME280;71954;47.430;18.920;2024-01-30T06:50:35;102249.09;;;-1.13;64.30
82353;BME280;71954;47.430;18.920;2024-01-30T06:53:02;102246.53;;;-1.07;64.78
82353;BME280;71954;47.430;18.920;2024-01-30T06:55:29;102256.09;;;-1.05;64.62
82353;BME280;71954;47.430;18.920;2024-01-30T06:57:55;102249.16;;;-1.01;64.50
82353;BME280;71954;47.430;18.920;2024-01-30T07:00:22;102252.66;;;-0.98;64.72
82353;BME280;71954;47.430;18.920;2024-01-30T07:02:48;102251.81;;;-0.92;64.41
82353;BME280;71954;47.430;18.920;2024-01-30T07:05:15;102260.50;;;-0.87;64.77
82353;BME280;71954;47.430;18.920;2024-01-30T07:07:43;102256.19;;;-0.85;64.40
82353;BME280;71954;47.430;18.920;2024-01-30T07:10:10;102254.44;;;-0.83;64.85
82353;BME280;71954;47.430;18.920;2024-01-30T07:12:37;102261.38;;;-0.85;65.89
82353;BME280;71954;47.430;18.920;2024-01-30T07:15:04;102251.81;;;-0.83;65.70
82353;BME280;71954;47.430;18.920;2024-01-30T07:17:35;102255.28;;;-0.83;65.60
82353;BME280;71954;47.430;18.920;2024-01-30T07:20:01;102252.69;;;-0.78;65.80
82353;BME280;71954;47.430;18.920;2024-01-30T07:22:31;102251.84;;;-0.71;66.01
82353;BME280;71954;47.430;18.920;2024-01-30T07:24:58;102255.34;;;-0.66;65.86
82353;BME280;71954;47.430;18.920;2024-01-30T07:27:25;102251.03;;;-0.61;65.66
82353;BME280;71954;47.430;18.920;2024-01-30T07:29:51;102251.00;;;-0.58;65.80
82353;BME280;71954;47.430;18.920;2024-01-30T07:32:18;102255.38;;;-0.51;66.02
82353;BME280;71954;47.430;18.920;2024-01-30T07:34:45;102251.91;;;-0.51;66.97
82353;BME280;71954;47.430;18.920;2024-01-30T07:37:31;102255.41;;;-0.43;67.19
82353;BME280;71954;47.430;18.920;2024-01-30T07:39:58;102245.84;;;-0.36;67.84
82353;BME280;71954;47.430;18.920;2024-01-30T07:42:25;102244.97;;;-0.31;67.25
82353;BME280;71954;47.430;18.920;2024-01-30T07:44:52;102247.56;;;-0.23;67.98
82353;BME280;71954;47.430;18.920;2024-01-30T07:47:18;102242.38;;;-0.14;69.17
82353;BME280;71954;47.430;18.920;2024-01-30T07:49:45;102236.25;;;-0.03;70.30
82353;BME280;71954;47.430;18.920;2024-01-30T07:52:12;102231.00;;;0.07;70.61
82353;BME280;71954;47.430;18.920;2024-01-30T07:54:38;102236.25;;;0.17;71.69
82353;BME280;71954;47.430;18.920;2024-01-30T07:57:05;102234.47;;;0.28;72.19
82353;BME280;71954;47.430;18.920;2024-01-30T07:59:32;102237.06;;;0.39;72.88
82353;BME280;71954;47.430;18.920;2024-01-30T08:01:58;102233.56;;;0.45;73.88
82353;BME280;71954;47.430;18.920;2024-01-30T08:04:25;102238.75;;;0.57;74.08
82353;BME280;71954;47.430;18.920;2024-01-30T08:06:52;102236.97;;;0.71;73.90
82353;BME280;71954;47.430;18.920;2024-01-30T08:09:18;102243.00;;;0.87;74.07
82353;BME280;71954;47.430;18.920;2024-01-30T08:11:45;102238.59;;;1.02;74.34
82353;BME280;71954;47.430;18.920;2024-01-30T08:14:12;102241.97;;;1.16;74.33
82353;BME280;71954;47.430;18.920;2024-01-30T08:16:40;102241.03;;;1.30;74.13
82353;BME280;71954;47.430;18.920;2024-01-30T08:19:06;102240.97;;;1.43;74.41
82353;BME280;71954;47.430;18.920;2024-01-30T08:21:33;102233.88;;;1.57;74.35
82353;BME280;71954;47.430;18.920;2024-01-30T08:24:05;102238.13;;;1.71;74.30
82353;BME280;71954;47.430;18.920;2024-01-30T08:26:33;102241.53;;;1.83;74.27
82353;BME280;71954;47.430;18.920;2024-01-30T08:29:00;102240.53;;;1.96;74.73
82353;BME280;71954;47.430;18.920;2024-01-30T08:31:26;102243.06;;;2.09;74.73
82353;BME280;71954;47.430;18.920;2024-01-30T08:33:53;102242.94;;;2.19;74.80
82353;BME280;71954;47.430;18.920;2024-01-30T08:36:20;102244.56;;;2.31;74.49
82353;BME280;71954;47.430;18.920;2024-01-30T08:38:47;102254.06;;;2.45;74.48
82353;BME280;71954;47.430;18.920;2024-01-30T08:41:13;102257.41;;;2.58;73.84
82353;BME280;71954;47.430;18.920;2024-01-30T08:43:40;102250.28;;;2.71;73.51
82353;BME280;71954;47.430;18.920;2024-01-30T08:46:07;102245.72;;;2.83;72.57
82353;BME280;71954;47.430;18.920;2024-01-30T08:48:33;102257.78;;;2.98;72.38
82353;BME280;71954;47.430;18.920;2024-01-30T08:51:02;102260.28;;;3.09;71.96
82353;BME280;71954;47.430;18.920;2024-01-30T08:53:28;102246.19;;;3.16;71.60
82353;BME280;71954;47.430;18.920;2024-01-30T08:55:55;102245.16;;;3.26;71.82
82353;BME280;71954;47.430;18.920;2024-01-30T08:58:21;102245.16;;;3.27;71.79
82353;BME280;71954;47.430;18.920;2024-01-30T09:00:48;102246.81;;;3.33;71.86
82353;BME280;71954;47.430;18.920;2024-01-30T09:03:15;102248.47;;;3.40;71.17
82353;BME280;71954;47.430;18.920;2024-01-30T09:05:41;102241.47;;;3.42;70.84
82353;BME280;71954;47.430;18.920;2024-01-30T09:08:08;102250.22;;;3.41;71.26
82353;BME280;71954;47.430;18.920;2024-01-30T09:10:35;102241.41;;;3.45;70.88
82353;BME280;71954;47.430;18.920;2024-01-30T09:13:02;102236.16;;;3.45;70.56
82353;BME280;71954;47.430;18.920;2024-01-30T09:15:28;102237.97;;;3.40;70.89
82353;BME280;71954;47.430;18.920;2024-01-30T09:17:55;102237.00;;;3.47;71.06
82353;BME280;71954;47.430;18.920;2024-01-30T09:20:22;102241.31;;;3.51;71.18
82353;BME280;71954;47.430;18.920;2024-01-30T09:22:49;102236.81;;;3.59;70.66
82353;BME280;71954;47.430;18.920;2024-01-30T09:25:16;102236.84;;;3.58;71.50
82353;BME280;71954;47.430;18.920;2024-01-30T09:27:42;102239.34;;;3.67;70.93
82353;BME280;71954;47.430;18.920;2024-01-30T09:30:09;102240.03;;;3.78;70.79
82353;BME280;71954;47.430;18.920;2024-01-30T09:32:36;102230.50;;;3.71;71.14
82353;BME280;71954;47.430;18.920;2024-01-30T09:35:02;102226.09;;;3.73;71.02
82353;BME280;71954;47.430;18.920;2024-01-30T09:37:30;102232.47;;;3.57;72.28
82353;BME280;71954;47.430;18.920;2024-01-30T09:39:57;102229.13;;;3.49;72.56
82353;BME280;71954;47.430;18.920;2024-01-30T09:42:28;102235.25;;;3.49;73.36
82353;BME280;71954;47.430;18.920;2024-01-30T09:44:58;102238.84;;;3.42;73.94
82353;BME280;71954;47.430;18.920;2024-01-30T09:47:26;102234.28;;;3.53;73.69
82353;BME280;71954;47.430;18.920;2024-01-30T09:49:53;102232.47;;;3.58;74.32
82353;BME280;71954;47.430;18.920;2024-01-30T09:52:19;102229.63;;;3.71;73.32
82353;BME280;71954;47.430;18.920;2024-01-30T09:54:47;102231.19;;;3.84;72.71
82353;BME280;71954;47.430;18.920;2024-01-30T09:57:15;102226.53;;;3.98;71.97
82353;BME280;71954;47.430;18.920;2024-01-30T09:59:42;102225.53;;;4.06;72.07
82353;BME280;71954;47.430;18.920;2024-01-30T10:02:10;102230.69;;;4.13;72.09
82353;BME280;71954;47.430;18.920;2024-01-30T10:04:37;102234.47;;;3.96;73.68
82353;BME280;71954;47.430;18.920;2024-01-30T10:07:04;102236.00;;;4.09;73.78
82353;BME280;71954;47.430;18.920;2024-01-30T10:09:33;102233.63;;;3.94;74.04
82353;BME280;71954;47.430;18.920;2024-01-30T10:12:01;102234.97;;;3.66;75.03
82353;BME280;71954;47.430;18.920;2024-01-30T10:14:30;102236.06;;;3.51;75.57
82353;BME280;71954;47.430;18.920;2024-01-30T10:16:57;102239.00;;;3.30;76.47
82353;BME280;71954;47.430;18.920;2024-01-30T10:19:24;102232.63;;;3.46;75.96
82353;BME280;71954;47.430;18.920;2024-01-30T10:21:51;102220.97;;;3.65;76.13
82353;BME280;71954;47.430;18.920;2024-01-30T10:24:18;102226.06;;;3.75;75.42
82353;BME280;71954;47.430;18.920;2024-01-30T10:26:44;102220.00;;;3.71;74.68
82353;BME280;71954;47.430;18.920;2024-01-30T10:29:11;102223.00;;;3.48;75.20
82353;BME280;71954;47.430;18.920;2024-01-30T10:31:38;102229.13;;;3.47;75.49
82353;BME280;71954;47.430;18.920;2024-01-30T10:34:04;102229.31;;;3.35;76.00
82353;BME280;71954;47.430;18.920;2024-01-30T10:36:46;102218.47;;;3.56;75.68
82353;BME280;71954;47.430;18.920;2024-01-30T10:39:17;102217.28;;;3.77;75.01
82353;BME280;71954;47.430;18.920;2024-01-30T10:41:44;102215.41;;;3.84;74.52
82353;BME280;71954;47.430;18.920;2024-01-30T10:44:18;102208.25;;;3.92;74.87
82353;BME280;71954;47.430;18.920;2024-01-30T10:46:51;102204.50;;;4.06;74.37
82353;BME280;71954;47.430;18.920;2024-01-30T10:49:21;102203.84;;;3.94;74.07
82353;BME280;71954;47.430;18.920;2024-01-30T10:51:48;102200.81;;;3.67;74.44
82353;BME280;71954;47.430;18.920;2024-01-30T10:54:17;102196.38;;;3.71;74.78
82353;BME280;71954;47.430;18.920;2024-01-30T10:56:44;102192.59;;;3.87;74.02
82353;BME280;71954;47.430;18.920;2024-01-30T10:59:11;102180.94;;;4.02;73.64
82353;BME280;71954;47.430;18.920;2024-01-30T11:01:39;102184.16;;;4.16;73.52
82353;BME280;71954;47.430;18.920;2024-01-30T11:04:07;102182.34;;;4.21;72.71
82353;BME280;71954;47.430;18.920;2024-01-30T11:06:41;102173.63;;;4.19;72.78
82353;BME280;71954;47.430;18.920;2024-01-30T11:09:10;102172.84;;;4.14;72.79
82353;BME280;71954;47.430;18.920;2024-01-30T11:11:58;102170.22;;;4.14;72.82
82353;BME280;71954;47.430;18.920;2024-01-30T11:14:29;102167.09;;;3.92;74.32
82353;BME280;71954;47.430;18.920;2024-01-30T11:16:59;102166.19;;;3.95;74.27
82353;BME280;71954;47.430;18.920;2024-01-30T11:19:26;102163.50;;;3.98;73.87
82353;BME280;71954;47.430;18.920;2024-01-30T11:21:54;102158.41;;;3.89;74.18
82353;BME280;71954;47.430;18.920;2024-01-30T11:24:23;102158.63;;;3.77;74.11
82353;BME280;71954;47.430;18.920;2024-01-30T11:26:57;102148.88;;;3.85;74.48
82353;BME280;71954;47.430;18.920;2024-01-30T11:29:28;102159.94;;;4.02;74.36
82353;BME280;71954;47.430;18.920;2024-01-30T11:31:56;102147.84;;;3.92;73.26
82353;BME280;71954;47.430;18.920;2024-01-30T11:34:23;102151.63;;;3.76;74.29
82353;BME280;71954;47.430;18.920;2024-01-30T11:37:03;102156.78;;;3.82;74.21
82353;BME280;71954;47.430;18.920;2024-01-30T11:39:30;102151.91;;;3.60;74.92
82353;BME280;71954;47.430;18.920;2024-01-30T11:41:58;102150.06;;;3.65;75.09
82353;BME280;71954;47.430;18.920;2024-01-30T11:44:25;102153.34;;;3.80;74.57
82353;BME280;71954;47.430;18.920;2024-01-30T11:46:52;102147.91;;;3.89;73.99
82353;BME280;71954;47.430;18.920;2024-01-30T11:49:19;102148.66;;;3.95;73.00
82353;BME280;71954;47.430;18.920;2024-01-30T11:51:46;102131.91;;;4.01;73.04
82353;BME280;71954;47.430;18.920;2024-01-30T11:54:18;102135.16;;;4.15;72.47
82353;BME280;71954;47.430;18.920;2024-01-30T11:56:45;102136.88;;;4.16;72.44
82353;BME280;71954;47.430;18.920;2024-01-30T11:59:11;102130.59;;;4.25;72.22
82353;BME280;71954;47.430;18.920;2024-01-30T12:01:38;102122.47;;;4.35;71.45
82353;BME280;71954;47.430;18.920;2024-01-30T12:04:05;102119.50;;;4.09;71.12
82353;BME280;71954;47.430;18.920;2024-01-30T12:06:37;102120.19;;;4.19;71.35
82353;BME280;71954;47.430;18.920;2024-01-30T12:09:04;102114.03;;;4.21;70.69
82353;BME280;71954;47.430;18.920;2024-01-30T12:11:31;102108.63;;;4.27;70.45
82353;BME280;71954;47.430;18.920;2024-01-30T12:13:57;102105.22;;;4.22;71.50
82353;BME280;71954;47.430;18.920;2024-01-30T12:16:24;102100.56;;;4.35;70.87
82353;BME280;71954;47.430;18.920;2024-01-30T12:18:59;102104.75;;;4.45;70.09
82353;BME280;71954;47.430;18.920;2024-01-30T12:21:28;102098.41;;;4.55;69.63
82353;BME280;71954;47.430;18.920;2024-01-30T12:23:56;102096.75;;;4.51;68.42
82353;BME280;71954;47.430;18.920;2024-01-30T12:26:24;102095.88;;;4.50;69.06
82353;BME280;71954;47.430;18.920;2024-01-30T12:28:56;102096.75;;;4.51;68.08
82353;BME280;71954;47.430;18.920;2024-01-30T12:31:26;102094.88;;;4.56;68.05
82353;BME280;71954;47.430;18.920;2024-01-30T12:33:56;102096.63;;;4.57;68.03
82353;BME280;71954;47.430;18.920;2024-01-30T12:36:25;102095.75;;;4.57;68.08
82353;BME280;71954;47.430;18.920;2024-01-30T12:38:52;102088.66;;;4.59;67.89
82353;BME280;71954;47.430;18.920;2024-01-30T12:41:20;102093.16;;;4.55;68.32
82353;BME280;71954;47.430;18.920;2024-01-30T12:43:47;102092.50;;;4.45;66.28
82353;BME280;71954;47.430;18.920;2024-01-30T12:46:17;102078.38;;;4.49;66.91